createdAt,value
2018-09-12T00:04:15.456Z,7.76
2018-09-12T00:10:10.468Z,5.37
2018-09-12T00:16:05.461Z,6
2018-09-12T00:22:00.452Z,5.39
2018-09-12T00:27:55.462Z,6.38
2018-09-12T00:33:50.525Z,6.29
2018-09-12T00:39:45.414Z,5.5
2018-09-12T00:45:40.425Z,4.75
2018-09-12T00:51:35.422Z,7.08
2018-09-12T00:57:30.446Z,4.93
2018-09-12T01:03:25.469Z,5.93
2018-09-12T01:09:20.478Z,7.19
2018-09-12T01:15:15.466Z,5.49
2018-09-12T01:21:10.476Z,7.3
2018-09-12T01:27:05.467Z,5.1
2018-09-12T01:33:00.477Z,5.5
2018-09-12T01:38:55.458Z,5.16
2018-09-12T01:44:50.433Z,5.53
2018-09-12T01:50:45.525Z,6.5
2018-09-12T01:56:40.518Z,6.92
2018-09-12T02:02:35.484Z,8.64
2018-09-12T02:08:30.451Z,5.83
2018-09-12T02:14:25.458Z,5.1
2018-09-12T02:20:20.498Z,6.47
2018-09-12T02:26:16.192Z,4.93
2018-09-12T02:32:10.476Z,8.32
2018-09-12T02:38:05.461Z,4.67
2018-09-12T02:44:00.526Z,7.87
2018-09-12T02:49:55.457Z,5.68
2018-09-12T02:55:50.552Z,6.75
2018-09-12T03:01:45.465Z,5.03
2018-09-12T03:07:40.523Z,5.62
2018-09-12T03:13:35.473Z,5.6
2018-09-12T03:19:30.486Z,6.71
2018-09-12T03:25:25.488Z,6.94
2018-09-12T03:31:20.485Z,6.35
2018-09-12T03:37:15.461Z,5.23
2018-09-12T03:43:10.524Z,6.99
2018-09-12T03:49:05.484Z,6.86
2018-09-12T03:55:00.476Z,6.57
2018-09-12T04:00:55.483Z,6.64
2018-09-12T04:06:50.481Z,4.91
2018-09-12T04:12:45.591Z,11.47
2018-09-12T04:18:40.480Z,8.99
2018-09-12T04:24:35.519Z,6.49
2018-09-12T04:30:30.483Z,4.65
2018-09-12T04:36:25.520Z,5.33
2018-09-12T04:42:20.510Z,5.63
2018-09-12T04:48:15.532Z,7.35
2018-09-12T04:54:10.507Z,5.54
2018-09-12T05:00:05.521Z,11.14
2018-09-12T05:06:00.524Z,10.82
2018-09-12T05:11:55.508Z,8.43
2018-09-12T05:17:50.488Z,11.77
2018-09-12T05:23:45.500Z,10.54
2018-09-12T05:29:40.560Z,12.51
2018-09-12T05:35:35.523Z,7.92
2018-09-12T05:41:30.486Z,8.63
2018-09-12T05:47:25.506Z,6.73
2018-09-12T05:53:20.504Z,8.12
2018-09-12T05:59:15.495Z,6.29
2018-09-12T06:05:10.498Z,8.65
2018-09-12T06:11:05.550Z,9.01
2018-09-12T06:17:00.543Z,7.42
2018-09-12T06:22:55.520Z,11.11
2018-09-12T06:28:50.530Z,7.75
2018-09-12T06:34:45.526Z,6.44
2018-09-12T06:40:40.493Z,7.73
2018-09-12T06:46:35.514Z,6.87
2018-09-12T06:52:30.517Z,6.67
2018-09-12T06:58:25.502Z,10.67
2018-09-12T07:04:20.517Z,12.5
2018-09-12T07:10:15.493Z,21.2
2018-09-12T07:16:10.527Z,30.83
2018-09-12T07:22:05.517Z,22.21
2018-09-12T07:28:00.532Z,18.19
2018-09-12T07:33:55.537Z,16.95
2018-09-12T07:39:50.559Z,14.64
2018-09-12T07:45:45.569Z,16.79
2018-09-12T07:51:40.510Z,12.16
2018-09-12T07:57:35.547Z,15.63
2018-09-12T08:03:30.513Z,14.56
2018-09-12T08:09:25.589Z,7.37
2018-09-12T08:15:20.513Z,8.18
2018-09-12T08:21:15.521Z,8.21
2018-09-12T08:27:10.528Z,11.91
2018-09-12T08:33:05.546Z,11.65
2018-09-12T08:39:00.552Z,8.06
2018-09-12T08:44:55.599Z,10.51
2018-09-12T08:50:50.557Z,9.44
2018-09-12T08:56:45.608Z,10.33
2018-09-12T09:02:40.557Z,9.69
2018-09-12T09:08:35.628Z,9.84
2018-09-12T09:14:30.570Z,12.39
2018-09-12T09:20:25.571Z,14.07
2018-09-12T09:26:20.551Z,9.92
2018-09-12T09:32:15.591Z,11.56
2018-09-12T09:38:10.606Z,10.06
2018-09-12T09:44:05.568Z,9.37
2018-09-12T09:50:00.549Z,7.48
2018-09-12T09:55:55.569Z,7.85
2018-09-12T10:01:50.600Z,9.67
2018-09-12T10:07:45.590Z,12.6
2018-09-12T10:13:40.579Z,7.57
2018-09-12T10:19:35.591Z,9.02
2018-09-12T10:25:30.595Z,11.56
2018-09-12T10:31:25.595Z,7.26
2018-09-12T10:37:20.639Z,6.84
2018-09-12T10:43:15.582Z,11
2018-09-12T10:49:10.595Z,7.08
2018-09-12T10:55:05.618Z,8.28
2018-09-12T11:01:00.610Z,9.63
2018-09-12T11:06:55.631Z,6.91
2018-09-12T11:12:50.650Z,6.87
2018-09-12T11:18:45.611Z,5.74
2018-09-12T11:24:40.618Z,6.44
2018-09-12T11:30:35.625Z,8.5
2018-09-12T11:36:30.624Z,6.2
2018-09-12T11:42:25.593Z,7.9
2018-09-12T11:48:20.609Z,7.57
2018-09-12T11:54:15.620Z,5.95
2018-09-12T12:00:10.612Z,7.23
2018-09-12T12:06:05.639Z,6.16
2018-09-12T12:12:00.647Z,6.87
2018-09-12T12:17:55.629Z,6.6
2018-09-12T12:23:50.647Z,6.31
2018-09-12T12:29:45.651Z,4.55
2018-09-12T12:35:40.631Z,6.51
2018-09-12T12:41:35.637Z,8.3
2018-09-12T12:47:30.633Z,6.76
2018-09-12T12:53:25.632Z,6.07
2018-09-12T12:59:20.663Z,4.27
2018-09-12T13:05:15.661Z,5.29
2018-09-12T13:11:10.638Z,3.33
2018-09-12T13:17:05.677Z,3.71
2018-09-12T13:23:00.697Z,3.12
2018-09-12T13:28:55.661Z,4.96
2018-09-12T13:34:50.678Z,5.3
2018-09-12T13:40:45.699Z,4.04
2018-09-12T13:46:40.748Z,3.75
2018-09-12T13:52:35.692Z,2.79
2018-09-12T13:58:30.717Z,3.25
2018-09-12T14:04:25.683Z,4.37
2018-09-12T14:10:20.738Z,5.21
2018-09-12T14:16:15.658Z,4.49
2018-09-12T14:22:10.707Z,5.3
2018-09-12T14:28:05.680Z,4.28
2018-09-12T14:34:00.684Z,5.72
2018-09-12T14:39:55.695Z,8.39
2018-09-12T14:45:50.687Z,4.15
2018-09-12T14:51:45.696Z,5.49
2018-09-12T14:57:40.788Z,4.59
2018-09-12T15:03:35.707Z,3.24
2018-09-12T15:09:30.703Z,5.14
2018-09-12T15:15:25.740Z,3.24
2018-09-12T15:21:20.698Z,4.38
2018-09-12T15:27:15.745Z,4.66
2018-09-12T15:33:10.722Z,3.33
2018-09-12T15:39:05.740Z,4.24
2018-09-12T15:45:00.729Z,4.68
2018-09-12T15:50:55.749Z,3.27
2018-09-12T15:56:50.746Z,3.4
2018-09-12T16:02:45.779Z,4.67
2018-09-12T16:08:40.745Z,5.19
2018-09-12T16:14:35.715Z,6.36
2018-09-12T16:20:30.742Z,4.18
2018-09-12T16:26:25.753Z,6.02
2018-09-12T16:32:20.750Z,4.83
2018-09-12T16:38:15.735Z,5.4
2018-09-12T16:44:10.747Z,5.4
2018-09-12T16:50:05.760Z,3.97
2018-09-12T16:56:00.784Z,3.81
2018-09-12T17:01:55.773Z,8.88
2018-09-12T17:07:50.763Z,4.36
2018-09-12T17:13:45.754Z,5.59
2018-09-12T17:19:40.790Z,8.21
2018-09-12T17:25:35.762Z,5.18
2018-09-12T17:31:30.820Z,5.8
2018-09-12T17:37:25.855Z,6.67
2018-09-12T17:43:20.752Z,4.01
2018-09-12T17:49:15.805Z,3.43
2018-09-12T17:55:10.811Z,7.06
2018-09-12T18:01:05.779Z,7.21
2018-09-12T18:07:00.794Z,5.57
2018-09-12T18:12:55.804Z,5.26
2018-09-12T18:18:50.774Z,4.98
2018-09-12T18:24:45.884Z,3.63
2018-09-12T18:30:40.823Z,3.65
2018-09-12T18:36:35.800Z,5.28
2018-09-12T18:42:30.796Z,5.19
2018-09-12T18:48:25.802Z,3.73
2018-09-12T18:54:20.817Z,4.25
2018-09-12T19:00:15.839Z,4.21
2018-09-12T19:06:10.809Z,3.62
2018-09-12T19:12:05.798Z,5.07
2018-09-12T19:18:00.829Z,4.21
2018-09-12T19:23:55.847Z,3.34
2018-09-12T19:29:50.802Z,4.24
2018-09-12T19:35:45.809Z,3.97
2018-09-12T19:41:40.886Z,4.38
2018-09-12T19:47:35.819Z,4.42
2018-09-12T19:53:30.808Z,4.3
2018-09-12T19:59:25.826Z,4.14
2018-09-12T20:05:20.837Z,6.48
2018-09-12T20:11:15.849Z,5.07
2018-09-12T20:17:10.822Z,4.53
2018-09-12T20:23:05.822Z,5.2
2018-09-12T20:29:00.842Z,5.67
2018-09-12T20:34:55.852Z,7.17
2018-09-12T20:40:50.838Z,6.21
2018-09-12T20:46:45.839Z,5.55
2018-09-12T20:52:40.885Z,5.28
2018-09-12T20:58:35.861Z,7.54
2018-09-12T21:04:30.875Z,6.58
2018-09-12T21:10:25.840Z,6.89
2018-09-12T21:16:20.852Z,5.46
2018-09-12T21:22:15.845Z,5.13
2018-09-12T21:28:10.842Z,7.06
2018-09-12T21:34:05.885Z,6.67
2018-09-12T21:40:00.892Z,9.92
2018-09-12T21:45:55.852Z,10.65
2018-09-12T21:51:50.870Z,5.52
2018-09-12T21:57:45.940Z,4.71
2018-09-12T22:03:40.885Z,7.3
2018-09-12T22:09:35.882Z,6.12
2018-09-12T22:15:30.920Z,6.23
2018-09-12T22:21:25.868Z,6.78
2018-09-12T22:27:20.859Z,5.82
2018-09-12T22:33:15.864Z,7.39
2018-09-12T22:39:10.868Z,5.28
2018-09-12T22:45:05.874Z,6.46
2018-09-12T22:51:00.899Z,7.59
2018-09-12T22:56:55.874Z,6.03
2018-09-12T23:02:50.872Z,5.51
2018-09-12T23:08:45.881Z,4.73
2018-09-12T23:14:40.927Z,4.78
2018-09-12T23:20:35.885Z,5.78
2018-09-12T23:26:30.892Z,5.23
2018-09-12T23:32:25.881Z,5.92
2018-09-12T23:38:20.892Z,5.25
2018-09-12T23:44:15.894Z,5.46
2018-09-12T23:50:10.910Z,7.3
2018-09-12T23:56:05.911Z,6.73
